Time;durP1;ratioP1;P1;durP2;ratioP2;P2;SDS_P1;SDS_P2;PMS_P1;PMS_P2;Temp;Humidity;BMP_temperature;BMP_pressure;BME280_temperature;BME280_humidity;BME280_pressure;Samples;Min_cycle;Max_cycle;Signal;HPM_P1;HPM_P2
2021/03/11 00:01:33;;;;;;;24.13;12.30;;;;;;;4.54;77.69;99383.91;8544519;33;20431;-73
2021/03/11 00:06:36;;;;;;;30.25;13.55;;;;;;;4.38;78.04;99368.19;8534506;33;20460;-73
2021/03/11 00:11:38;;;;;;;24.20;9.52;;;;;;;4.35;77.06;99354.25;8533461;33;20955;-74
2021/03/11 00:16:40;;;;;;;24.60;11.82;;;;;;;4.05;77.29;99338.69;8536849;33;20831;-74
2021/03/11 00:21:44;;;;;;;15.98;8.10;;;;;;;4.30;77.58;99328.00;8539329;33;20533;-73
2021/03/11 00:26:46;;;;;;;27.67;13.27;;;;;;;4.32;77.45;99311.94;8538875;33;20515;-73
2021/03/11 00:31:48;;;;;;;25.45;10.05;;;;;;;4.10;78.22;99299.34;8538665;33;20143;-73
2021/03/11 00:36:51;;;;;;;28.77;12.85;;;;;;;4.31;78.09;99299.63;8539707;33;21451;-73
2021/03/11 00:41:54;;;;;;;25.45;11.23;;;;;;;4.15;78.56;99275.94;8519320;33;20465;-73
2021/03/11 00:46:56;;;;;;;35.53;12.98;;;;;;;4.17;79.21;99264.25;8517059;33;20432;-73
2021/03/11 00:52:00;;;;;;;23.92;11.23;;;;;;;4.09;79.55;99285.22;8538550;33;20878;-74
2021/03/11 00:57:02;;;;;;;27.90;11.85;;;;;;;4.22;80.03;99265.72;8541817;33;20443;-74
2021/03/11 01:02:08;;;;;;;34.58;15.88;;;;;;;4.23;80.14;99241.69;8515015;33;20375;-73
2021/03/11 01:07:16;;;;;;;25.00;11.15;;;;;;;3.93;80.56;99231.47;8517602;33;20179;-73
2021/03/11 01:12:18;;;;;;;24.38;11.30;;;;;;;4.13;79.81;99224.72;8542817;33;20175;-73
2021/03/11 01:17:20;;;;;;;25.00;12.25;;;;;;;4.05;79.95;99196.03;8541832;33;20183;-73
2021/03/11 01:22:24;;;;;;;17.80;10.32;;;;;;;4.27;79.10;99175.84;8538982;33;20991;-73
2021/03/11 01:27:26;;;;;;;19.95;10.80;;;;;;;4.25;78.69;99148.53;8538934;33;20414;-73
2021/03/11 01:32:28;;;;;;;19.92;9.30;;;;;;;4.27;78.66;99139.47;8538489;33;20176;-73
2021/03/11 01:37:31;;;;;;;31.43;14.73;;;;;;;4.50;77.94;99140.44;8542336;33;20230;-73
2021/03/11 01:42:34;;;;;;;21.85;10.65;;;;;;;4.38;77.81;99125.38;8546145;33;20156;-73
2021/03/11 01:47:37;;;;;;;29.38;13.63;;;;;;;4.51;77.47;99104.88;8547766;33;20518;-73
2021/03/11 01:52:42;;;;;;;21.95;8.93;;;;;;;4.54;77.71;99087.84;8546178;33;20426;-73
2021/03/11 01:57:46;;;;;;;30.58;13.52;;;;;;;4.27;79.29;99088.13;8485311;33;20407;-73
2021/03/11 02:02:50;;;;;;;24.00;11.45;;;;;;;4.16;80.53;99079.16;8483754;33;20177;-73
2021/03/11 02:07:53;;;;;;;26.00;12.88;;;;;;;4.35;80.55;99036.06;8484541;33;21252;-73
2021/03/11 02:13:26;;;;;;;27.48;11.98;;;;;;;4.31;80.59;99026.66;8483380;33;20346;-73
2021/03/11 02:18:34;;;;;;;28.10;11.60;;;;;;;4.18;80.60;99013.44;8463480;33;20240;-73
2021/03/11 02:24:25;;;;;;;31.77;15.32;;;;;;;4.22;80.55;99027.34;8491261;33;21152;-73
2021/03/11 02:29:32;;;;;;;29.00;12.20;;;;;;;4.41;80.76;99002.84;8488436;33;20226;-73
2021/03/11 02:34:37;;;;;;;30.10;13.88;;;;;;;4.47;80.26;98988.22;8498801;33;20454;-74
2021/03/11 02:39:44;;;;;;;26.83;12.00;;;;;;;4.47;80.74;98982.91;8514600;33;20150;-73
2021/03/11 02:44:48;;;;;;;29.25;12.48;;;;;;;4.53;80.40;98955.88;8492775;33;20147;-73
2021/03/11 02:49:51;;;;;;;30.42;13.70;;;;;;;4.51;79.84;98947.16;8494073;33;20988;-73
2021/03/11 02:54:56;;;;;;;23.35;11.18;;;;;;;4.57;79.74;98930.69;8530138;33;21345;-73
2021/03/11 03:00:04;;;;;;;23.02;12.57;;;;;;;4.80;78.64;98915.56;8563845;33;20144;-73
2021/03/11 03:05:08;;;;;;;24.10;11.40;;;;;;;4.68;78.46;98879.31;8561135;33;20447;-74
2021/03/11 03:10:12;;;;;;;31.55;13.60;;;;;;;4.89;78.02;98869.59;8548241;33;20186;-73
2021/03/11 03:15:16;;;;;;;24.40;11.30;;;;;;;5.04;76.95;98844.41;8555755;33;20411;-74
2021/03/11 03:20:21;;;;;;;31.23;8.18;;;;;;;5.00;76.48;98823.53;8537069;33;20147;-74
2021/03/11 03:25:24;;;;;;;16.63;7.47;;;;;;;4.95;75.81;98831.00;8558880;33;20418;-73
2021/03/11 03:30:27;;;;;;;17.95;8.85;;;;;;;5.10;75.27;98808.50;8560726;33;20278;-73
2021/03/11 03:35:30;;;;;;;20.35;9.10;;;;;;;5.19;74.67;98798.88;8561925;33;21053;-73
2021/03/11 03:40:32;;;;;;;21.70;10.55;;;;;;;5.31;73.80;98815.63;8558234;33;20463;-73
2021/03/11 03:45:42;;;;;;;20.17;9.57;;;;;;;5.45;73.20;98778.03;8559121;33;20423;-73
2021/03/11 03:50:47;;;;;;;13.80;7.63;;;;;;;5.52;73.30;98771.22;8559225;33;20183;-74
2021/03/11 03:55:56;;;;;;;24.02;9.15;;;;;;;5.60;73.32;98766.06;8560716;33;20416;-74
2021/03/11 04:01:00;;;;;;;18.65;8.25;;;;;;;5.76;73.08;98786.03;8557689;33;20180;-73
2021/03/11 04:06:03;;;;;;;23.27;9.85;;;;;;;5.66;73.06;98784.19;8559085;33;20414;-74
2021/03/11 04:11:05;;;;;;;12.15;6.13;;;;;;;5.80;72.67;98788.31;8559507;33;21160;-74
2021/03/11 04:16:09;;;;;;;16.77;8.48;;;;;;;5.85;73.36;98771.94;8564882;33;20219;-74
2021/03/11 04:21:12;;;;;;;17.50;8.00;;;;;;;5.52;74.71;98787.19;8563642;33;20555;-74
2021/03/11 04:26:14;;;;;;;17.73;7.82;;;;;;;5.56;76.40;98779.78;8558141;33;20481;-74
2021/03/11 04:31:18;;;;;;;10.30;5.45;;;;;;;5.27;78.01;98757.31;8557322;33;20184;-74
2021/03/11 04:36:21;;;;;;;13.88;6.47;;;;;;;5.21;78.82;98773.81;8559589;33;20468;-73
2021/03/11 04:41:23;;;;;;;17.00;8.73;;;;;;;5.33;79.09;98760.44;8560683;33;21982;-72
2021/03/11 04:46:27;;;;;;;20.70;8.70;;;;;;;5.39;79.22;98741.28;8564775;33;20428;-73
2021/03/11 04:51:30;;;;;;;13.35;6.93;;;;;;;5.42;79.37;98731.19;8567575;33;20463;-73
2021/03/11 04:56:34;;;;;;;16.00;5.50;;;;;;;5.25;79.14;98729.97;8568997;33;20278;-73
2021/03/11 05:01:42;;;;;;;10.85;5.72;;;;;;;5.57;78.10;98737.03;8573405;33;20240;-74
2021/03/11 05:06:44;;;;;;;10.48;5.90;;;;;;;5.68;77.21;98722.78;8542355;33;20419;-74
2021/03/11 05:11:47;;;;;;;10.52;5.70;;;;;;;5.62;76.76;98715.31;8540568;33;20151;-73
2021/03/11 05:16:51;;;;;;;17.70;8.73;;;;;;;6.02;76.21;98728.66;8592987;33;21025;-73
2021/03/11 05:21:53;;;;;;;10.98;5.65;;;;;;;5.94;75.72;98736.47;8565933;33;20985;-73
2021/03/11 05:26:55;;;;;;;13.30;6.35;;;;;;;5.83;76.54;98718.78;8567686;33;20152;-73
2021/03/11 05:31:58;;;;;;;16.38;7.78;;;;;;;5.52;79.08;98701.97;8553712;33;20806;-74
2021/03/11 05:37:01;;;;;;;9.20;5.03;;;;;;;5.33;78.81;98700.03;8520966;33;20170;-74
2021/03/11 05:42:04;;;;;;;9.98;5.10;;;;;;;5.65;78.18;98705.25;8564670;33;20405;-74
2021/03/11 05:47:08;;;;;;;6.72;3.63;;;;;;;5.58;78.16;98688.09;8563806;33;20181;-74
2021/03/11 05:52:14;;;;;;;9.80;4.93;;;;;;;5.45;79.09;98692.81;8563977;33;20183;-73
2021/03/11 05:57:21;;;;;;;11.80;5.90;;;;;;;5.59;79.69;98673.81;8549416;33;21021;-75
2021/03/11 06:02:26;;;;;;;11.50;6.38;;;;;;;5.34;81.24;98682.25;8549374;33;20434;-75
2021/03/11 06:07:29;;;;;;;7.10;3.60;;;;;;;5.25;82.11;98655.44;8547588;33;20450;-76
2021/03/11 06:12:32;;;;;;;11.30;5.03;;;;;;;5.12;82.80;98644.16;8547289;33;20411;-75
2021/03/11 06:17:40;;;;;;;8.50;5.00;;;;;;;5.37;82.66;98634.06;8547897;33;21247;-75
2021/03/11 06:22:42;;;;;;;9.70;5.47;;;;;;;5.42;82.57;98623.84;8549184;33;21183;-72
2021/03/11 06:27:45;;;;;;;8.48;5.07;;;;;;;5.50;82.14;98629.34;8558737;33;20128;-75
2021/03/11 06:32:55;;;;;;;9.65;6.00;;;;;;;5.37;83.06;98608.25;8567556;33;20156;-74
2021/03/11 06:37:58;;;;;;;9.68;5.57;;;;;;;5.33;83.03;98569.59;8559922;33;20223;-74
2021/03/11 06:43:11;;;;;;;7.53;4.28;;;;;;;5.58;82.53;98584.22;8561691;33;20487;-75
2021/03/11 06:48:24;;;;;;;10.20;5.18;;;;;;;5.60;82.59;98602.75;8566028;33;20427;-74
2021/03/11 06:53:28;;;;;;;6.82;3.58;;;;;;;5.41;83.53;98580.41;8578583;33;21953;-74
2021/03/11 06:58:31;;;;;;;8.02;4.40;;;;;;;5.81;82.23;98594.66;8564506;33;20464;-74
2021/03/11 07:03:39;;;;;;;5.45;4.07;;;;;;;5.82;82.04;98596.34;8555501;33;20180;-73
2021/03/11 07:08:51;;;;;;;5.60;3.88;;;;;;;6.01;81.74;98590.22;8544236;33;20579;-73
2021/03/11 07:13:56;;;;;;;6.80;3.83;;;;;;;5.85;82.37;98606.75;8550835;33;20425;-73
2021/03/11 07:19:13;;;;;;;4.93;3.50;;;;;;;5.75;81.67;98580.06;8569094;33;20412;-73
2021/03/11 07:24:34;;;;;;;5.15;3.80;;;;;;;5.69;81.83;98565.47;8564528;33;20192;-73
2021/03/11 07:29:37;;;;;;;6.85;4.10;;;;;;;6.08;80.81;98551.34;8565931;33;20434;-73
2021/03/11 07:34:42;;;;;;;6.78;4.90;;;;;;;6.18;80.05;98584.19;8564023;33;20967;-71
2021/03/11 07:39:45;;;;;;;5.53;3.03;;;;;;;6.21;79.73;98535.06;8547863;33;20527;-71
2021/03/11 07:44:48;;;;;;;5.57;3.63;;;;;;;6.27;79.91;98530.00;8538589;33;20238;-71
2021/03/11 07:49:52;;;;;;;5.47;3.53;;;;;;;6.39;78.99;98518.22;8535023;33;21785;-72
2021/03/11 07:54:55;;;;;;;4.70;3.42;;;;;;;6.27;79.40;98524.66;8553436;33;20511;-72
2021/03/11 07:59:57;;;;;;;5.13;2.70;;;;;;;6.34;78.91;98530.28;8535526;33;20605;-72
2021/03/11 08:05:01;;;;;;;4.30;2.67;;;;;;;6.37;79.49;98508.66;8538812;33;20263;-71
2021/03/11 08:10:21;;;;;;;4.82;2.83;;;;;;;6.31;79.42;98519.91;8556673;33;20167;-72
2021/03/11 08:15:41;;;;;;;3.47;2.17;;;;;;;6.46;80.15;98506.97;8549828;33;20424;-72
2021/03/11 08:20:44;;;;;;;5.78;3.63;;;;;;;6.57;80.09;98493.47;8564148;33;20509;-73
2021/03/11 08:25:48;;;;;;;2.72;2.33;;;;;;;6.29;80.77;98492.53;8576912;33;20284;-72
2021/03/11 08:30:52;;;;;;;4.10;3.20;;;;;;;6.37;80.20;98492.66;8573716;33;20213;-72
2021/03/11 08:35:57;;;;;;;4.88;2.63;;;;;;;6.28;80.72;98544.16;8593991;33;20414;-72
2021/03/11 08:41:04;;;;;;;3.85;2.90;;;;;;;6.37;83.13;98480.19;8567322;33;20461;-72
2021/03/11 08:46:08;;;;;;;5.43;3.03;;;;;;;6.05;82.95;98491.16;8536495;33;20432;-73
2021/03/11 08:51:36;;;;;;;3.92;3.30;;;;;;;6.19;82.80;98468.56;8542724;33;20259;-73
2021/03/11 08:56:43;;;;;;;3.22;2.50;;;;;;;6.26;81.95;98472.34;8541532;33;20202;-72
2021/03/11 09:01:48;;;;;;;3.10;2.17;;;;;;;6.81;79.48;98448.44;8529272;33;20143;-72
2021/03/11 09:06:57;;;;;;;4.30;2.58;;;;;;;7.11;78.05;98401.09;8544476;33;20501;-73
2021/03/11 09:12:00;;;;;;;4.22;3.35;;;;;;;7.53;76.91;98407.69;8558897;33;20414;-72
2021/03/11 09:17:09;;;;;;;3.67;2.50;;;;;;;7.75;75.27;98403.69;8542597;33;20696;-72
2021/03/11 09:22:34;;;;;;;4.55;2.08;;;;;;;8.22;74.35;98390.00;8538014;33;20582;-72
2021/03/11 09:27:40;;;;;;;6.75;2.40;;;;;;;8.94;71.21;98377.16;8584509;33;20499;-72
2021/03/11 09:33:07;;;;;;;3.65;2.40;;;;;;;8.97;71.95;98369.66;8594027;33;20147;-72
2021/03/11 09:38:18;;;;;;;2.05;1.77;;;;;;;8.95;71.88;98355.56;8588983;33;20412;-72
2021/03/11 09:43:26;;;;;;;3.88;2.63;;;;;;;8.65;72.18;98366.84;8560613;33;20432;-72
2021/03/11 09:48:30;;;;;;;2.25;1.85;;;;;;;8.74;71.03;98363.19;8542898;33;20406;-72
2021/03/11 09:53:37;;;;;;;4.22;2.60;;;;;;;8.90;71.65;98373.13;8537683;33;20152;-72
2021/03/11 09:58:45;;;;;;;1.73;1.48;;;;;;;8.84;71.99;98350.53;8541007;33;21895;-73
2021/03/11 10:03:48;;;;;;;3.85;2.15;;;;;;;8.88;71.73;98354.53;8535673;33;20191;-73
2021/03/11 10:08:55;;;;;;;2.42;2.03;;;;;;;8.68;73.98;98345.13;8534533;33;21008;-72
2021/03/11 10:14:01;;;;;;;4.05;3.55;;;;;;;8.12;74.31;98342.00;8529033;33;20466;-71
2021/03/11 10:19:12;;;;;;;5.78;3.22;;;;;;;8.22;73.38;98348.03;8529051;33;20194;-71
2021/03/11 10:24:41;;;;;;;3.72;2.25;;;;;;;8.36;73.22;98320.72;8532938;33;21363;-72
2021/03/11 10:29:44;;;;;;;4.10;2.40;;;;;;;8.76;73.36;98358.53;8543142;33;20436;-72
2021/03/11 10:34:47;;;;;;;3.55;1.85;;;;;;;8.83;72.52;98336.31;8549513;33;20140;-72
2021/03/11 10:39:54;;;;;;;4.35;2.38;;;;;;;8.97;72.04;98334.84;8510191;33;20160;-71
2021/03/11 10:45:01;;;;;;;5.15;2.88;;;;;;;8.89;71.48;98323.28;8529475;33;20154;-72
2021/03/11 10:50:16;;;;;;;7.85;2.70;;;;;;;8.91;70.35;98318.56;8534364;33;20172;-72
2021/03/11 10:55:32;;;;;;;1.98;1.77;;;;;;;8.80;70.12;98312.53;8534585;33;20188;-72
2021/03/11 11:00:35;;;;;;;4.85;2.13;;;;;;;9.55;67.93;98278.63;8509486;33;20515;-71
2021/03/11 11:05:38;;;;;;;3.20;1.67;;;;;;;9.52;66.59;98282.47;8537409;33;20785;-71
2021/03/11 11:10:42;;;;;;;2.67;2.17;;;;;;;9.71;66.44;98278.59;8537803;33;21145;-71
2021/03/11 11:15:44;;;;;;;1.95;1.70;;;;;;;11.09;62.40;98260.22;8545739;33;20471;-71
2021/03/11 11:20:46;;;;;;;5.03;1.77;;;;;;;10.15;64.26;98262.09;8554184;33;20463;-71
2021/03/11 11:25:49;;;;;;;2.28;1.52;;;;;;;10.25;62.74;98286.03;8565257;33;20500;-72
2021/03/11 11:30:52;;;;;;;2.80;1.33;;;;;;;11.07;60.55;98273.00;8534283;33;20404;-72
2021/03/11 11:35:54;;;;;;;9.98;2.47;;;;;;;10.99;60.93;98263.13;8555885;33;20208;-71
2021/03/11 11:40:57;;;;;;;4.55;2.13;;;;;;;11.33;58.56;98255.72;8562165;33;20538;-72
2021/03/11 11:46:00;;;;;;;6.05;1.77;;;;;;;11.37;57.95;98254.34;8558385;33;20424;-72
2021/03/11 11:51:02;;;;;;;7.47;2.15;;;;;;;11.01;58.22;98269.19;8554077;33;20523;-72
2021/03/11 11:56:06;;;;;;;7.32;1.95;;;;;;;11.64;56.39;98260.97;8543469;33;20457;-72
2021/03/11 12:01:08;;;;;;;5.20;2.95;;;;;;;10.71;56.71;98229.78;8559727;33;20414;-72
2021/03/11 12:06:12;;;;;;;4.30;2.50;;;;;;;10.38;58.48;98240.69;8560424;33;20143;-72
2021/03/11 12:11:16;;;;;;;3.65;2.28;;;;;;;11.02;56.01;98227.84;8552506;33;20274;-72
2021/03/11 12:16:18;;;;;;;6.40;2.72;;;;;;;11.57;55.63;98254.66;8546526;33;21111;-72
2021/03/11 12:21:21;;;;;;;9.07;4.18;;;;;;;11.72;54.04;98218.69;8558902;33;20171;-73
2021/03/11 12:26:24;;;;;;;4.38;2.05;;;;;;;11.39;54.88;98225.44;8559360;33;20175;-72
2021/03/11 12:31:28;;;;;;;5.72;2.53;;;;;;;10.95;54.16;98239.53;8556579;33;20144;-72
2021/03/11 12:36:31;;;;;;;5.13;2.10;;;;;;;11.39;51.67;98238.88;8558587;33;20191;-72
2021/03/11 12:41:34;;;;;;;9.90;2.90;;;;;;;11.67;51.04;98188.84;8560768;33;20428;-72
2021/03/11 12:46:37;;;;;;;7.25;2.97;;;;;;;12.51;47.31;98190.38;8559403;33;20155;-72
2021/03/11 12:51:40;;;;;;;9.60;2.10;;;;;;;11.89;46.76;98208.59;8558601;33;20256;-73
2021/03/11 12:56:43;;;;;;;4.65;2.05;;;;;;;12.34;44.83;98209.44;8560293;33;20612;-72
2021/03/11 13:01:45;;;;;;;2.75;1.80;;;;;;;11.62;45.67;98206.53;8566335;33;20493;-72
2021/03/11 13:06:47;;;;;;;8.60;3.17;;;;;;;11.62;46.29;98202.00;8569619;33;20422;-72
2021/03/11 13:11:50;;;;;;;7.53;2.30;;;;;;;11.04;45.77;98147.09;8600075;33;20139;-72
2021/03/11 13:16:52;;;;;;;4.90;2.42;;;;;;;10.79;49.33;98210.94;8622088;33;20426;-73
2021/03/11 13:21:55;;;;;;;9.35;2.83;;;;;;;9.55;55.46;98212.47;8616370;33;20434;-72
2021/03/11 13:26:58;;;;;;;5.63;2.22;;;;;;;7.88;69.89;98305.25;8585744;33;20408;-72
2021/03/11 13:32:00;;;;;;;10.68;2.85;;;;;;;8.05;68.37;98280.28;8575340;33;20415;-72
2021/03/11 13:37:03;;;;;;;11.65;3.00;;;;;;;10.39;59.96;98263.81;8574410;33;20176;-72
2021/03/11 13:42:08;;;;;;;7.47;3.00;;;;;;;10.39;57.43;98256.63;8587588;33;20271;-72
2021/03/11 13:47:10;;;;;;;5.75;1.95;;;;;;;13.69;47.40;98278.78;8583937;33;20430;-72
2021/03/11 13:52:13;;;;;;;7.03;2.00;;;;;;;11.12;50.58;98256.34;8618039;33;20590;-71
2021/03/11 13:57:17;;;;;;;3.70;1.42;;;;;;;10.56;53.16;98275.34;8580031;33;20183;-72
2021/03/11 14:02:19;;;;;;;9.57;2.28;;;;;;;9.98;57.94;98281.91;8581100;33;20414;-72
2021/03/11 14:07:22;;;;;;;11.88;2.45;;;;;;;8.87;63.08;98327.94;8583320;33;20255;-72
2021/03/11 14:12:25;;;;;;;12.75;2.83;;;;;;;7.87;77.46;98331.16;8570176;33;20387;-72
2021/03/11 14:17:27;;;;;;;10.23;3.08;;;;;;;6.35;82.09;98347.97;8586331;33;20220;-72
2021/03/11 14:22:30;;;;;;;8.52;3.47;;;;;;;6.56;83.17;98337.06;8567957;33;20960;-72
2021/03/11 14:27:33;;;;;;;7.80;3.08;;;;;;;6.20;82.45;98374.28;8563437;33;20547;-73
2021/03/11 14:32:36;;;;;;;5.35;2.67;;;;;;;6.11;81.13;98401.78;8586418;33;20132;-73
2021/03/11 14:37:39;;;;;;;10.10;2.67;;;;;;;5.82;85.25;98426.69;8622468;33;20167;-73
2021/03/11 14:42:42;;;;;;;12.57;3.28;;;;;;;6.24;82.38;98402.31;8625565;33;20428;-73
2021/03/11 14:47:44;;;;;;;3.60;2.10;;;;;;;7.26;80.19;98436.97;8623104;33;20971;-73
2021/03/11 14:52:47;;;;;;;8.77;2.15;;;;;;;9.41;75.51;98387.31;8599872;33;20644;-72
2021/03/11 14:57:50;;;;;;;12.13;2.53;;;;;;;9.75;68.96;98411.28;8568123;33;20434;-71
2021/03/11 15:02:52;;;;;;;11.40;3.70;;;;;;;10.72;69.83;98393.38;8589012;33;20458;-72
2021/03/11 15:07:55;;;;;;;2.10;1.70;;;;;;;9.12;68.26;98393.94;8622745;33;20440;-72
2021/03/11 15:12:58;;;;;;;13.80;3.30;;;;;;;8.80;71.31;98416.09;8616658;33;20419;-72
2021/03/11 15:18:00;;;;;;;10.18;3.35;;;;;;;8.01;71.97;98393.03;8589412;33;20202;-71
2021/03/11 15:23:03;;;;;;;9.68;3.15;;;;;;;8.29;72.74;98410.63;8585068;33;20148;-71
2021/03/11 15:28:07;;;;;;;8.35;2.83;;;;;;;7.75;74.02;98404.53;8558627;33;20187;-72
2021/03/11 15:33:10;;;;;;;8.63;3.13;;;;;;;8.15;72.35;98404.00;8561646;33;20179;-71
2021/03/11 15:38:17;;;;;;;6.18;2.67;;;;;;;8.71;73.02;98382.25;8539299;33;20422;-71
2021/03/11 15:43:20;;;;;;;5.22;2.25;;;;;;;8.96;68.98;98401.94;8574868;33;20295;-71
2021/03/11 15:48:23;;;;;;;8.02;2.45;;;;;;;9.54;66.28;98394.84;8540688;33;20175;-71
2021/03/11 15:53:26;;;;;;;4.72;1.90;;;;;;;8.66;64.27;98390.75;8550154;33;20179;-71
2021/03/11 15:58:29;;;;;;;6.22;2.65;;;;;;;8.76;62.12;98385.31;8575388;33;20501;-71
2021/03/11 16:03:31;;;;;;;9.50;2.42;;;;;;;8.55;63.15;98399.06;8590024;33;21238;-71
2021/03/11 16:08:33;;;;;;;10.50;2.63;;;;;;;8.44;64.38;98413.53;8560282;33;20333;-71
2021/03/11 16:13:37;;;;;;;7.18;1.80;;;;;;;4.00;87.31;98528.63;8559340;33;20428;-73
2021/03/11 16:18:39;;;;;;;7.63;1.42;;;;;;;4.27;86.94;98524.63;8553485;33;20956;-72
2021/03/11 16:23:42;;;;;;;1.70;1.08;;;;;;;4.38;86.58;98520.09;8520331;33;20226;-71
2021/03/11 16:28:45;;;;;;;2.55;0.95;;;;;;;4.44;87.16;98512.56;8520896;33;20897;-73
2021/03/11 16:33:47;;;;;;;1.63;1.48;;;;;;;4.36;86.80;98523.84;8543760;33;20432;-75
2021/03/11 16:38:49;;;;;;;3.08;1.30;;;;;;;4.51;86.70;98521.72;8548908;33;20160;-73
2021/03/11 16:43:52;;;;;;;4.68;1.58;;;;;;;4.66;85.13;98514.22;8563273;33;20179;-72
2021/03/11 16:48:54;;;;;;;2.72;1.20;;;;;;;5.08;84.28;98533.66;8562028;33;20677;-72
2021/03/11 16:53:57;;;;;;;2.10;1.48;;;;;;;5.06;83.97;98549.72;8562687;33;20418;-72
2021/03/11 16:59:00;;;;;;;1.48;1.20;;;;;;;5.21;83.22;98546.69;8599720;33;20936;-71
2021/03/11 17:04:03;;;;;;;3.78;1.17;;;;;;;5.24;82.90;98533.16;8623958;33;20943;-71
2021/03/11 17:09:06;;;;;;;3.88;1.27;;;;;;;5.30;82.55;98545.91;8592625;33;21116;-70
2021/03/11 17:14:09;;;;;;;1.55;0.80;;;;;;;5.23;82.38;98547.41;8592999;33;20706;-71
2021/03/11 17:19:12;;;;;;;0.85;0.85;;;;;;;5.29;81.78;98546.88;8621977;33;20690;-71
2021/03/11 17:24:14;;;;;;;2.63;1.33;;;;;;;5.17;81.83;98545.28;8624903;33;20797;-71
2021/03/11 17:29:18;;;;;;;8.55;2.42;;;;;;;5.47;82.24;98587.00;8623306;33;20175;-71
2021/03/11 17:34:20;;;;;;;3.00;1.60;;;;;;;5.38;82.78;98595.81;8613051;33;22105;-71
2021/03/11 17:39:22;;;;;;;8.40;1.50;;;;;;;4.79;83.58;98584.00;8605588;33;20472;-72
2021/03/11 17:44:26;;;;;;;6.43;2.75;;;;;;;4.65;83.34;98587.00;8578590;33;20443;-74
2021/03/11 17:49:28;;;;;;;5.38;2.30;;;;;;;4.79;85.06;98598.16;8544300;33;21648;-73
2021/03/11 17:54:30;;;;;;;4.65;1.92;;;;;;;4.65;84.56;98589.69;8518325;33;20447;-73
2021/03/11 17:59:33;;;;;;;9.43;2.58;;;;;;;4.68;85.21;98630.13;8541869;33;20450;-74
2021/03/11 18:04:36;;;;;;;7.18;2.53;;;;;;;4.98;85.12;98671.94;8543128;33;20217;-73
2021/03/11 18:09:38;;;;;;;2.35;1.40;;;;;;;4.14;84.65;98695.75;8522914;33;20453;-73
2021/03/11 18:14:41;;;;;;;3.03;1.38;;;;;;;3.77;84.35;98671.28;8549150;33;20478;-74
2021/03/11 18:19:43;;;;;;;1.85;1.25;;;;;;;4.17;84.47;98679.56;8546626;33;21911;-74
2021/03/11 18:24:45;;;;;;;1.70;1.05;;;;;;;4.08;83.48;98664.34;8550913;33;20224;-74
2021/03/11 18:29:49;;;;;;;1.15;1.10;;;;;;;3.97;82.04;98669.69;8560175;33;20428;-73
2021/03/11 18:34:53;;;;;;;1.23;0.77;;;;;;;4.19;81.59;98642.19;8556965;33;20225;-73
2021/03/11 18:39:58;;;;;;;6.57;1.83;;;;;;;4.39;81.08;98645.91;8553501;33;20415;-74
2021/03/11 18:45:02;;;;;;;3.55;1.35;;;;;;;4.44;80.22;98648.16;8543268;33;21260;-72
2021/03/11 18:50:06;;;;;;;3.60;2.00;;;;;;;4.97;80.74;98648.13;8542717;33;20580;-74
2021/03/11 18:55:10;;;;;;;5.55;1.98;;;;;;;4.79;79.59;98669.97;8539836;33;20159;-73
2021/03/11 19:00:17;;;;;;;3.53;1.60;;;;;;;4.99;78.66;98657.69;8538177;33;20271;-73
2021/03/11 19:05:22;;;;;;;1.50;0.80;;;;;;;4.86;77.79;98664.16;8542080;33;20419;-73
2021/03/11 19:10:26;;;;;;;7.15;0.98;;;;;;;5.03;77.48;98667.09;8534275;33;21032;-72
2021/03/11 19:15:29;;;;;;;3.15;1.58;;;;;;;5.08;76.76;98665.88;8573480;33;20477;-72
2021/03/11 19:20:35;;;;;;;3.90;1.63;;;;;;;5.11;76.35;98665.59;8589373;33;20266;-72
2021/03/11 19:25:38;;;;;;;4.28;1.35;;;;;;;5.15;76.37;98682.97;8581291;33;20504;-73
2021/03/11 19:30:42;;;;;;;3.60;1.70;;;;;;;5.09;75.26;98696.81;8554408;33;20540;-73
2021/03/11 19:35:45;;;;;;;4.97;1.88;;;;;;;5.05;74.55;98675.78;8528184;33;21684;-73
2021/03/11 19:40:48;;;;;;;2.45;1.20;;;;;;;5.11;74.58;98714.34;8506809;33;20483;-72
2021/03/11 19:45:54;;;;;;;4.18;1.67;;;;;;;5.21;75.16;98699.28;8507676;33;20445;-72
2021/03/11 19:50:57;;;;;;;2.53;1.50;;;;;;;5.25;74.75;98683.88;8509820;33;20416;-73
2021/03/11 19:55:59;;;;;;;2.15;1.38;;;;;;;5.39;74.06;98701.34;8516575;33;20159;-72
2021/03/11 20:01:03;;;;;;;1.95;1.40;;;;;;;5.32;72.50;98693.06;8501025;33;20144;-72
2021/03/11 20:06:06;;;;;;;5.03;2.17;;;;;;;5.47;73.88;98697.03;8513666;33;20425;-72
2021/03/11 20:11:12;;;;;;;1.60;1.50;;;;;;;5.26;73.15;98694.38;8510799;33;20171;-72
2021/03/11 20:16:15;;;;;;;8.68;2.50;;;;;;;5.30;72.97;98707.47;8484517;33;20964;-73
2021/03/11 20:21:17;;;;;;;3.90;1.92;;;;;;;5.34;73.40;98731.00;8549772;33;20489;-73
2021/03/11 20:26:20;;;;;;;4.95;1.85;;;;;;;5.48;72.42;98720.00;8512002;33;20159;-73
2021/03/11 20:31:23;;;;;;;2.20;1.48;;;;;;;5.30;72.20;98742.91;8520749;33;20518;-73
2021/03/11 20:36:26;;;;;;;9.57;2.33;;;;;;;5.50;72.00;98731.38;8568869;33;20624;-73
2021/03/11 20:41:39;;;;;;;5.45;1.30;;;;;;;5.49;72.01;98735.03;8589156;33;20429;-73
2021/03/11 20:46:45;;;;;;;2.78;1.00;;;;;;;5.31;71.88;98738.44;8589200;33;20518;-72
2021/03/11 20:51:47;;;;;;;4.18;1.67;;;;;;;5.38;71.78;98735.13;8569403;33;20407;-72
2021/03/11 20:56:50;;;;;;;2.55;2.35;;;;;;;5.45;71.03;98740.75;8546718;33;20476;-72
2021/03/11 21:01:53;;;;;;;4.88;1.70;;;;;;;5.44;70.70;98744.41;8538043;33;20402;-73
2021/03/11 21:06:59;;;;;;;3.55;2.00;;;;;;;5.50;71.24;98744.69;8536936;33;20436;-72
2021/03/11 21:12:06;;;;;;;2.83;1.63;;;;;;;5.38;71.00;98764.41;8539547;33;20521;-73
2021/03/11 21:17:09;;;;;;;6.53;1.88;;;;;;;5.73;69.61;98764.03;8540797;33;21072;-73
2021/03/11 21:22:11;;;;;;;1.33;1.25;;;;;;;5.45;70.03;98783.34;8532865;33;20919;-73
2021/03/11 21:27:14;;;;;;;1.92;1.17;;;;;;;5.58;70.23;98788.50;8535174;33;20186;-73
2021/03/11 21:32:17;;;;;;;3.50;1.88;;;;;;;5.52;70.04;98791.69;8564747;33;21045;-73
2021/03/11 21:37:20;;;;;;;5.50;2.30;;;;;;;5.62;70.24;98780.13;8582078;33;20405;-72
2021/03/11 21:42:29;;;;;;;6.65;2.00;;;;;;;5.22;68.27;98766.69;8560963;33;20416;-72
2021/03/11 21:47:32;;;;;;;2.63;1.55;;;;;;;5.49;67.01;98820.25;8557494;33;21000;-73
2021/03/11 21:52:35;;;;;;;3.15;1.83;;;;;;;5.62;67.51;98803.22;8535968;33;20191;-73
2021/03/11 21:57:38;;;;;;;2.55;1.58;;;;;;;5.46;67.92;98809.03;8539784;33;20197;-73
2021/03/11 22:02:41;;;;;;;1.40;1.23;;;;;;;5.27;68.66;98823.88;8517031;33;21098;-74
2021/03/11 22:07:46;;;;;;;1.85;1.10;;;;;;;5.37;68.13;98831.94;8541820;33;20180;-73
2021/03/11 22:12:50;;;;;;;2.55;1.48;;;;;;;5.29;68.86;98837.06;8541352;33;20429;-73
2021/03/11 22:17:54;;;;;;;1.73;1.38;;;;;;;5.39;69.11;98829.16;8540251;33;20526;-73
2021/03/11 22:22:56;;;;;;;4.05;1.60;;;;;;;5.21;69.48;98848.38;8540023;33;20182;-73
2021/03/11 22:27:59;;;;;;;1.20;1.00;;;;;;;5.55;67.90;98850.84;8540631;33;21081;-73
2021/03/11 22:33:03;;;;;;;7.47;4.15;;;;;;;5.57;68.66;98854.25;8541375;33;20622;-73
2021/03/11 22:38:08;;;;;;;2.38;1.95;;;;;;;5.81;67.73;98864.59;8545546;33;20791;-74
2021/03/11 22:43:16;;;;;;;4.57;1.60;;;;;;;5.43;68.57;98858.06;8537712;33;21694;-73
2021/03/11 22:48:19;;;;;;;2.65;1.30;;;;;;;5.51;68.45;98857.41;8538506;33;20485;-73
2021/03/11 22:53:22;;;;;;;6.55;2.38;;;;;;;5.34;69.04;98865.97;8512216;33;20508;-73
2021/03/11 22:58:24;;;;;;;5.75;2.65;;;;;;;5.15;70.26;98861.31;8537151;33;20129;-73
2021/03/11 23:03:28;;;;;;;1.30;1.20;;;;;;;5.04;70.48;98873.69;8538534;33;21468;-73
2021/03/11 23:08:31;;;;;;;1.92;1.70;;;;;;;5.06;70.06;98870.91;8513797;33;20282;-73
2021/03/11 23:13:35;;;;;;;6.07;2.47;;;;;;;4.94;70.75;98866.56;8537810;33;21137;-73
2021/03/11 23:18:39;;;;;;;5.53;2.90;;;;;;;5.26;69.28;98879.91;8537182;33;20202;-73
2021/03/11 23:23:45;;;;;;;4.15;2.88;;;;;;;5.00;69.69;98869.59;8537796;33;20195;-73
2021/03/11 23:28:49;;;;;;;3.55;2.30;;;;;;;5.30;69.06;98877.84;8540905;33;20427;-74
2021/03/11 23:33:52;;;;;;;6.30;2.78;;;;;;;5.23;68.89;98875.69;8536694;33;20965;-73
2021/03/11 23:38:54;;;;;;;8.57;3.38;;;;;;;5.33;68.89;98869.59;8537219;33;20262;-73
2021/03/11 23:43:57;;;;;;;8.98;2.88;;;;;;;5.18;69.20;98863.72;8538821;33;20142;-73
2021/03/11 23:49:01;;;;;;;9.48;3.28;;;;;;;5.21;68.86;98882.97;8543336;33;20542;-73
2021/03/11 23:54:04;;;;;;;4.15;1.85;;;;;;;5.27;68.58;98890.44;8505377;33;20411;-74
2021/03/11 23:59:06;;;;;;;7.90;3.85;;;;;;;5.21;68.75;98898.06;8533980;33;20495;-73
